createdAt,value
2018-04-08T00:00:37.474Z,14.59
2018-04-08T00:01:37.242Z,14.72
2018-04-08T00:02:37.527Z,14.66
2018-04-08T00:03:37.288Z,14.77
2018-04-08T00:04:37.308Z,14.78
2018-04-08T00:05:37.596Z,14.88
2018-04-08T00:06:37.618Z,14.82
2018-04-08T00:07:37.375Z,14.81
2018-04-08T00:08:37.152Z,14.84
2018-04-08T00:09:37.703Z,14.73
2018-04-08T00:10:37.728Z,14.77
2018-04-08T00:11:37.710Z,14.7
2018-04-08T00:12:37.475Z,14.77
2018-04-08T00:13:37.746Z,14.62
2018-04-08T00:14:37.516Z,14.63
2018-04-08T00:15:37.593Z,14.6
2018-04-08T00:16:37.555Z,14.59
2018-04-08T00:17:37.577Z,14.62
2018-04-08T00:18:37.600Z,14.58
2018-04-08T00:19:37.370Z,14.51
2018-04-08T00:20:37.389Z,14.51
2018-04-08T00:21:37.914Z,14.6
2018-04-08T00:22:37.941Z,14.51
2018-04-08T00:23:37.450Z,14.5
2018-04-08T00:24:38.023Z,14.59
2018-04-08T00:25:38.002Z,14.51
2018-04-08T00:26:37.790Z,14.5
2018-04-08T00:27:38.045Z,14.6
2018-04-08T00:28:38.062Z,14.6
2018-04-08T00:29:38.247Z,14.5
2018-04-08T00:30:38.121Z,14.32
2018-04-08T00:31:37.615Z,14.43
2018-04-08T00:32:38.143Z,14.35
2018-04-08T00:33:37.913Z,14.33
2018-04-08T00:34:37.940Z,14.32
2018-04-08T00:35:37.955Z,14.3
2018-04-08T00:36:37.974Z,14.23
2018-04-08T00:37:37.991Z,14.32
2018-04-08T00:38:38.023Z,14.32
2018-04-08T00:39:38.036Z,14.29
2018-04-08T00:40:38.058Z,14.32
2018-04-08T00:41:38.076Z,14.26
2018-04-08T00:42:38.358Z,14.2
2018-04-08T00:43:38.377Z,14.17
2018-04-08T00:44:38.446Z,14.26
2018-04-08T00:45:38.161Z,14.33
2018-04-08T00:46:38.433Z,14.22
2018-04-08T00:47:38.458Z,14.17
2018-04-08T00:48:37.967Z,14.2
2018-04-08T00:49:38.256Z,14.29
2018-04-08T00:50:38.011Z,14.23
2018-04-08T00:51:38.284Z,14.18
2018-04-08T00:52:38.310Z,14.17
2018-04-08T00:53:38.339Z,14.22
2018-04-08T00:54:38.345Z,14.07
2018-04-08T00:55:38.623Z,14.08
2018-04-08T00:56:38.637Z,14.03
2018-04-08T00:57:38.402Z,14.15
2018-04-08T00:58:38.674Z,14.18
2018-04-08T00:59:38.748Z,14.03
2018-04-08T01:00:38.216Z,13.99
2018-04-08T01:01:38.490Z,14.05
2018-04-08T01:02:38.515Z,14.05
2018-04-08T01:03:38.789Z,14.07
2018-04-08T01:04:38.803Z,14.04
2018-04-08T01:05:38.828Z,14.03
2018-04-08T01:06:38.851Z,14.05
2018-04-08T01:07:38.355Z,14.03
2018-04-08T01:08:38.382Z,13.95
2018-04-08T01:09:38.891Z,13.87
2018-04-08T01:10:38.929Z,13.92
2018-04-08T01:11:38.703Z,13.97
2018-04-08T01:12:38.978Z,14.03
2018-04-08T01:13:38.991Z,13.97
2018-04-08T01:14:39.065Z,13.97
2018-04-08T01:15:38.786Z,13.99
2018-04-08T01:16:39.107Z,13.9
2018-04-08T01:17:38.567Z,13.89
2018-04-08T01:18:39.092Z,13.85
2018-04-08T01:19:38.859Z,13.95
2018-04-08T01:20:38.888Z,13.89
2018-04-08T01:21:38.898Z,13.83
2018-04-08T01:22:39.180Z,13.83
2018-04-08T01:23:39.197Z,13.81
2018-04-08T01:24:38.721Z,13.85
2018-04-08T01:25:39.236Z,13.81
2018-04-08T01:26:39.257Z,13.79
2018-04-08T01:27:39.274Z,13.81
2018-04-08T01:28:39.293Z,13.86
2018-04-08T01:29:39.110Z,13.83
2018-04-08T01:30:39.336Z,13.75
2018-04-08T01:31:39.361Z,13.71
2018-04-08T01:32:38.868Z,13.67
2018-04-08T01:33:39.394Z,13.77
2018-04-08T01:34:39.416Z,13.83
2018-04-08T01:35:39.186Z,13.81
2018-04-08T01:36:39.210Z,13.81
2018-04-08T01:37:39.476Z,13.7
2018-04-08T01:38:39.499Z,13.7
2018-04-08T01:39:39.265Z,13.71
2018-04-08T01:40:39.540Z,13.7
2018-04-08T01:41:39.572Z,13.74
2018-04-08T01:42:39.324Z,13.72
2018-04-08T01:43:39.604Z,13.68
2018-04-08T01:44:39.680Z,13.54
2018-04-08T01:45:39.638Z,13.5
2018-04-08T01:46:39.659Z,13.52
2018-04-08T01:47:39.681Z,13.56
2018-04-08T01:48:39.445Z,13.57
2018-04-08T01:49:39.717Z,13.62
2018-04-08T01:50:39.743Z,13.56
2018-04-08T01:51:39.770Z,13.71
2018-04-08T01:52:39.780Z,13.68
2018-04-08T01:53:39.541Z,13.65
2018-04-08T01:54:39.815Z,13.5
2018-04-08T01:55:39.832Z,13.49
2018-04-08T01:56:39.610Z,13.49
2018-04-08T01:57:39.642Z,13.53
2018-04-08T01:58:39.907Z,13.39
2018-04-08T01:59:39.716Z,13.44
2018-04-08T02:00:39.939Z,13.41
2018-04-08T02:01:39.720Z,13.31
2018-04-08T02:02:39.726Z,13.37
2018-04-08T02:03:39.746Z,13.33
2018-04-08T02:04:39.815Z,13.31
2018-04-08T02:05:40.031Z,13.28
2018-04-08T02:06:40.059Z,13.37
2018-04-08T02:07:39.820Z,13.28
2018-04-08T02:08:40.090Z,13.35
2018-04-08T02:09:40.115Z,13.23
2018-04-08T02:10:39.877Z,13.27
2018-04-08T02:11:40.151Z,13.31
2018-04-08T02:12:39.924Z,13.33
2018-04-08T02:13:39.934Z,13.25
2018-04-08T02:14:39.969Z,13.28
2018-04-08T02:15:40.227Z,13.13
2018-04-08T02:16:40.261Z,13.18
2018-04-08T02:17:40.045Z,13.08
2018-04-08T02:18:40.308Z,13.05
2018-04-08T02:19:40.372Z,13.01
2018-04-08T02:20:40.082Z,13.01
2018-04-08T02:21:40.102Z,12.97
2018-04-08T02:22:40.136Z,12.9
2018-04-08T02:23:40.397Z,12.87
2018-04-08T02:24:39.912Z,12.79
2018-04-08T02:25:40.437Z,12.78
2018-04-08T02:26:40.201Z,12.87
2018-04-08T02:27:40.481Z,12.86
2018-04-08T02:28:40.241Z,12.94
2018-04-08T02:29:40.513Z,12.94
2018-04-08T02:30:40.028Z,12.86
2018-04-08T02:31:40.301Z,12.93
2018-04-08T02:32:40.568Z,12.95
2018-04-08T02:33:40.091Z,13.03
2018-04-08T02:34:40.155Z,13.01
2018-04-08T02:35:40.632Z,12.95
2018-04-08T02:36:40.645Z,12.94
2018-04-08T02:37:40.674Z,12.97
2018-04-08T02:38:40.439Z,12.91
2018-04-08T02:39:40.863Z,12.98
2018-04-08T02:40:40.480Z,12.91
2018-04-08T02:41:40.499Z,12.94
2018-04-08T02:42:40.778Z,12.83
2018-04-08T02:43:40.802Z,12.8
2018-04-08T02:44:40.557Z,12.86
2018-04-08T02:45:40.835Z,12.9
2018-04-08T02:46:40.851Z,12.75
2018-04-08T02:47:40.619Z,12.94
2018-04-08T02:48:40.637Z,12.8
2018-04-08T02:49:40.662Z,12.87
2018-04-08T02:50:40.933Z,12.85
2018-04-08T02:51:40.956Z,12.76
2018-04-08T02:52:41.025Z,12.83
2018-04-08T02:53:41.000Z,12.73
2018-04-08T02:54:41.025Z,12.78
2018-04-08T02:55:41.051Z,12.78
2018-04-08T02:56:41.052Z,12.76
2018-04-08T02:57:40.816Z,12.78
2018-04-08T02:58:41.085Z,12.68
2018-04-08T02:59:40.866Z,12.79
2018-04-08T03:00:40.874Z,12.76
2018-04-08T03:01:41.148Z,12.79
2018-04-08T03:02:40.909Z,12.82
2018-04-08T03:03:41.180Z,12.72
2018-04-08T03:04:41.211Z,12.61
2018-04-08T03:05:40.917Z,12.75
2018-04-08T03:06:41.259Z,12.65
2018-04-08T03:07:41.057Z,12.6
2018-04-08T03:08:41.283Z,12.68
2018-04-08T03:09:41.101Z,12.61
2018-04-08T03:10:41.066Z,12.54
2018-04-08T03:11:41.346Z,12.62
2018-04-08T03:12:41.353Z,12.64
2018-04-08T03:13:41.123Z,12.53
2018-04-08T03:14:41.145Z,12.55
2018-04-08T03:15:41.161Z,12.55
2018-04-08T03:16:40.930Z,12.5
2018-04-08T03:17:41.456Z,12.53
2018-04-08T03:18:41.488Z,12.55
2018-04-08T03:19:41.506Z,12.49
2018-04-08T03:20:41.514Z,12.49
2018-04-08T03:21:41.530Z,12.43
2018-04-08T03:22:41.299Z,12.43
2018-04-08T03:23:41.316Z,12.31
2018-04-08T03:24:41.352Z,12.4
2018-04-08T03:25:41.609Z,12.4
2018-04-08T03:26:41.370Z,12.27
2018-04-08T03:27:41.476Z,12.35
2018-04-08T03:28:41.411Z,12.35
2018-04-08T03:29:41.690Z,12.28
2018-04-08T03:30:41.708Z,12.24
2018-04-08T03:31:41.731Z,12.21
2018-04-08T03:32:41.491Z,12.24
2018-04-08T03:33:41.758Z,12.18
2018-04-08T03:34:41.797Z,12.29
2018-04-08T03:35:41.292Z,12.29
2018-04-08T03:36:41.820Z,12.29
2018-04-08T03:37:41.868Z,12.43
2018-04-08T03:38:41.731Z,12.4
2018-04-08T03:39:41.885Z,12.4
2018-04-08T03:40:41.644Z,12.4
2018-04-08T03:41:41.917Z,12.5
2018-04-08T03:42:41.938Z,12.47
2018-04-08T03:43:41.700Z,12.47
2018-04-08T03:44:41.720Z,12.31
2018-04-08T03:45:41.997Z,12.32
2018-04-08T03:46:42.014Z,12.31
2018-04-08T03:47:42.035Z,12.32
2018-04-08T03:48:42.055Z,12.43
2018-04-08T03:49:42.073Z,12.43
2018-04-08T03:50:42.094Z,12.32
2018-04-08T03:51:41.855Z,12.32
2018-04-08T03:52:41.875Z,12.37
2018-04-08T03:53:41.898Z,12.32
2018-04-08T03:54:41.666Z,12.46
2018-04-08T03:55:41.930Z,12.45
2018-04-08T03:56:42.210Z,12.45
2018-04-08T03:57:41.970Z,12.39
2018-04-08T03:58:41.735Z,12.43
2018-04-08T03:59:42.260Z,12.46
2018-04-08T04:00:42.278Z,12.36
2018-04-08T04:01:41.791Z,12.28
2018-04-08T04:02:42.319Z,12.18
2018-04-08T04:03:42.084Z,12.1
2018-04-08T04:04:42.104Z,12.24
2018-04-08T04:05:42.128Z,12.13
2018-04-08T04:06:42.140Z,12.17
2018-04-08T04:07:42.159Z,12.06
2018-04-08T04:08:42.439Z,12.17
2018-04-08T04:09:42.204Z,12.07
2018-04-08T04:10:42.476Z,12.06
2018-04-08T04:11:41.981Z,12
2018-04-08T04:12:42.260Z,11.84
2018-04-08T04:13:42.275Z,11.86
2018-04-08T04:14:42.307Z,11.91
2018-04-08T04:15:42.320Z,11.83
2018-04-08T04:16:42.330Z,11.86
2018-04-08T04:17:42.349Z,11.97
2018-04-08T04:18:42.366Z,11.95
2018-04-08T04:19:42.380Z,11.84
2018-04-08T04:20:42.701Z,11.88
2018-04-08T04:21:42.164Z,12.03
2018-04-08T04:22:42.689Z,11.99
2018-04-08T04:23:42.481Z,11.97
2018-04-08T04:24:42.475Z,11.86
2018-04-08T04:25:42.501Z,11.87
2018-04-08T04:26:42.769Z,11.99
2018-04-08T04:27:42.788Z,11.91
2018-04-08T04:28:42.300Z,11.87
2018-04-08T04:29:42.819Z,11.75
2018-04-08T04:30:42.587Z,11.77
2018-04-08T04:31:42.598Z,11.68
2018-04-08T04:32:42.871Z,11.63
2018-04-08T04:33:42.936Z,11.65
2018-04-08T04:34:42.654Z,11.62
2018-04-08T04:35:42.427Z,11.68
2018-04-08T04:36:42.697Z,11.63
2018-04-08T04:37:42.485Z,11.62
2018-04-08T04:38:43.039Z,11.63
2018-04-08T04:39:42.757Z,11.66
2018-04-08T04:40:43.031Z,11.68
2018-04-08T04:41:43.043Z,11.59
2018-04-08T04:42:42.823Z,11.65
2018-04-08T04:43:43.091Z,11.59
2018-04-08T04:44:43.119Z,11.65
2018-04-08T04:45:43.326Z,11.66
2018-04-08T04:46:43.151Z,11.65
2018-04-08T04:47:42.917Z,11.62
2018-04-08T04:48:43.202Z,11.65
2018-04-08T04:49:43.210Z,11.52
2018-04-08T04:50:43.232Z,11.59
2018-04-08T04:51:43.002Z,11.62
2018-04-08T04:52:43.284Z,11.6
2018-04-08T04:53:43.342Z,11.62
2018-04-08T04:54:43.296Z,11.59
2018-04-08T04:55:43.309Z,11.72
2018-04-08T04:56:43.086Z,11.7
2018-04-08T04:57:43.356Z,11.75
2018-04-08T04:58:43.377Z,11.7
2018-04-08T04:59:43.394Z,11.73
2018-04-08T05:00:43.415Z,11.65
2018-04-08T05:01:43.437Z,11.69
2018-04-08T05:02:43.200Z,11.62
2018-04-08T05:03:43.580Z,11.55
2018-04-08T05:04:43.238Z,11.65
2018-04-08T05:05:43.512Z,11.7
2018-04-08T05:06:43.550Z,11.72
2018-04-08T05:07:43.587Z,11.66
2018-04-08T05:08:43.605Z,11.66
2018-04-08T05:09:43.331Z,11.77
2018-04-08T05:10:43.595Z,11.78
2018-04-08T05:11:43.619Z,11.81
2018-04-08T05:12:43.644Z,11.75
2018-04-08T05:13:43.404Z,11.8
2018-04-08T05:14:43.675Z,11.78
2018-04-08T05:15:43.690Z,11.88
2018-04-08T05:16:43.456Z,11.81
2018-04-08T05:17:43.725Z,11.88
2018-04-08T05:18:43.493Z,11.83
2018-04-08T05:19:43.515Z,11.77
2018-04-08T05:20:43.800Z,11.72
2018-04-08T05:21:43.560Z,11.73
2018-04-08T05:22:43.316Z,11.87
2018-04-08T05:23:43.637Z,11.88
2018-04-08T05:24:43.610Z,11.9
2018-04-08T05:25:43.879Z,11.81
2018-04-08T05:26:43.647Z,11.83
2018-04-08T05:27:43.922Z,11.9
2018-04-08T05:28:43.942Z,12.02
2018-04-08T05:29:43.710Z,11.99
2018-04-08T05:30:43.728Z,11.97
2018-04-08T05:31:43.752Z,11.99
2018-04-08T05:32:44.015Z,11.99
2018-04-08T05:33:44.100Z,11.95
2018-04-08T05:34:43.818Z,12.04
2018-04-08T05:35:43.829Z,11.97
2018-04-08T05:36:43.846Z,11.95
2018-04-08T05:37:43.862Z,11.95
2018-04-08T05:38:43.880Z,11.99
2018-04-08T05:39:43.901Z,12
2018-04-08T05:40:43.920Z,11.95
2018-04-08T05:41:43.945Z,11.94
2018-04-08T05:42:44.211Z,11.78
2018-04-08T05:43:44.011Z,11.87
2018-04-08T05:44:44.249Z,11.8
2018-04-08T05:45:44.270Z,11.83
2018-04-08T05:46:44.291Z,11.87
2018-04-08T05:47:44.303Z,11.99
2018-04-08T05:48:44.122Z,11.84
2018-04-08T05:49:44.087Z,11.91
2018-04-08T05:50:44.366Z,12.02
2018-04-08T05:51:44.129Z,12.12
2018-04-08T05:52:44.419Z,12.12
2018-04-08T05:53:44.418Z,12.24
2018-04-08T05:54:44.446Z,12.21
2018-04-08T05:55:44.203Z,12.21
2018-04-08T05:56:44.477Z,12.24
2018-04-08T05:57:44.243Z,12.17
2018-04-08T05:58:44.272Z,12.21
2018-04-08T05:59:44.279Z,12.32
2018-04-08T06:00:44.296Z,12.29
2018-04-08T06:01:44.318Z,12.22
2018-04-08T06:02:44.087Z,12.31
2018-04-08T06:03:44.632Z,12.27
2018-04-08T06:04:44.628Z,12.32
2018-04-08T06:05:44.397Z,12.2
2018-04-08T06:06:44.669Z,12.32
2018-04-08T06:07:44.704Z,12.28
2018-04-08T06:08:44.456Z,12.35
2018-04-08T06:09:44.471Z,12.24
2018-04-08T06:10:44.495Z,12.25
2018-04-08T06:11:44.511Z,12.31
2018-04-08T06:12:44.791Z,12.31
2018-04-08T06:13:44.802Z,12.32
2018-04-08T06:14:44.828Z,12.4
2018-04-08T06:15:44.837Z,12.42
2018-04-08T06:16:44.608Z,12.39
2018-04-08T06:17:44.620Z,12.39
2018-04-08T06:18:44.895Z,12.43
2018-04-08T06:19:44.404Z,12.46
2018-04-08T06:20:44.941Z,12.49
2018-04-08T06:21:44.695Z,12.61
2018-04-08T06:22:44.986Z,12.64
2018-04-08T06:23:44.481Z,12.65
2018-04-08T06:24:44.758Z,12.67
2018-04-08T06:25:44.547Z,12.58
2018-04-08T06:26:45.051Z,12.78
2018-04-08T06:27:44.814Z,12.8
2018-04-08T06:28:45.087Z,12.78
2018-04-08T06:29:45.112Z,12.76
2018-04-08T06:30:44.875Z,12.86
2018-04-08T06:31:44.638Z,12.91
2018-04-08T06:32:44.658Z,12.97
2018-04-08T06:33:44.676Z,12.97
2018-04-08T06:34:44.952Z,13
2018-04-08T06:35:44.970Z,12.98
2018-04-08T06:36:45.247Z,12.95
2018-04-08T06:37:45.273Z,12.79
2018-04-08T06:38:45.030Z,12.94
2018-04-08T06:39:45.309Z,12.94
2018-04-08T06:40:45.333Z,12.95
2018-04-08T06:41:45.387Z,13.03
2018-04-08T06:42:45.364Z,12.98
2018-04-08T06:43:45.125Z,13.08
2018-04-08T06:44:45.401Z,13.16
2018-04-08T06:45:45.417Z,13.25
2018-04-08T06:46:45.195Z,13.31
2018-04-08T06:47:45.469Z,13.41
2018-04-08T06:48:44.973Z,13.47
2018-04-08T06:49:45.246Z,13.47
2018-04-08T06:50:45.266Z,13.42
2018-04-08T06:51:45.539Z,13.53
2018-04-08T06:52:45.308Z,13.47
2018-04-08T06:53:45.581Z,13.6
2018-04-08T06:54:45.347Z,13.57
2018-04-08T06:55:45.364Z,13.65
2018-04-08T06:56:45.388Z,13.75
2018-04-08T06:57:45.419Z,13.67
2018-04-08T06:58:45.424Z,13.72
2018-04-08T06:59:45.708Z,13.68
2018-04-08T07:00:45.715Z,13.68
2018-04-08T07:01:45.735Z,13.77
2018-04-08T07:02:45.500Z,13.68
2018-04-08T07:03:45.520Z,13.67
2018-04-08T07:04:45.798Z,13.71
2018-04-08T07:05:45.562Z,13.79
2018-04-08T07:06:45.585Z,13.72
2018-04-08T07:07:45.860Z,13.87
2018-04-08T07:08:45.622Z,13.89
2018-04-08T07:09:45.900Z,13.99
2018-04-08T07:10:45.667Z,14.11
2018-04-08T07:11:45.940Z,14.03
2018-04-08T07:12:45.958Z,13.99
2018-04-08T07:13:45.728Z,14.1
2018-04-08T07:14:46.013Z,14.05
2018-04-08T07:15:46.019Z,14.03
2018-04-08T07:16:46.038Z,14.23
2018-04-08T07:17:45.823Z,14.32
2018-04-08T07:18:45.832Z,14.32
2018-04-08T07:19:45.900Z,14.28
2018-04-08T07:20:45.866Z,14.29
2018-04-08T07:21:45.886Z,14.36
2018-04-08T07:22:46.158Z,14.32
2018-04-08T07:23:46.177Z,14.43
2018-04-08T07:24:46.022Z,14.51
2018-04-08T07:25:46.220Z,14.53
2018-04-08T07:26:45.989Z,14.58
2018-04-08T07:27:46.264Z,14.73
2018-04-08T07:28:46.037Z,14.73
2018-04-08T07:29:46.299Z,14.7
2018-04-08T07:30:46.064Z,14.68
2018-04-08T07:31:46.089Z,14.69
2018-04-08T07:32:46.638Z,14.81
2018-04-08T07:33:46.384Z,14.85
2018-04-08T07:34:46.469Z,14.85
2018-04-08T07:35:46.172Z,15.06
2018-04-08T07:36:46.194Z,15.02
2018-04-08T07:37:46.211Z,15.11
2018-04-08T07:38:46.225Z,15.21
2018-04-08T07:39:46.610Z,15.21
2018-04-08T07:40:46.271Z,15.11
2018-04-08T07:41:46.288Z,15.03
2018-04-08T07:42:46.306Z,15.14
2018-04-08T07:43:46.582Z,15.11
2018-04-08T07:44:46.605Z,15.17
2018-04-08T07:45:46.375Z,15.29
2018-04-08T07:46:46.403Z,15.37
2018-04-08T07:47:46.415Z,15.43
2018-04-08T07:48:46.442Z,15.54
2018-04-08T07:49:46.359Z,15.61
2018-04-08T07:50:46.743Z,15.61
2018-04-08T07:51:46.535Z,15.54
2018-04-08T07:52:46.523Z,15.55
2018-04-08T07:53:46.800Z,15.76
2018-04-08T07:54:46.818Z,15.77
2018-04-08T07:55:46.860Z,15.72
2018-04-08T07:56:46.357Z,15.83
2018-04-08T07:57:46.890Z,15.79
2018-04-08T07:58:46.923Z,15.82
2018-04-08T07:59:46.674Z,15.94
2018-04-08T08:00:46.950Z,15.84
2018-04-08T08:01:46.717Z,15.91
2018-04-08T08:02:46.746Z,16.01
2018-04-08T08:03:46.750Z,15.98
2018-04-08T08:04:47.081Z,16.1
2018-04-08T08:05:46.796Z,16.16
2018-04-08T08:06:47.070Z,16.21
2018-04-08T08:07:46.838Z,16.24
2018-04-08T08:08:46.862Z,16.36
2018-04-08T08:09:47.131Z,16.43
2018-04-08T08:10:47.160Z,16.53
2018-04-08T08:11:46.678Z,16.51
2018-04-08T08:12:47.197Z,16.42
2018-04-08T08:13:46.715Z,16.54
2018-04-08T08:14:47.262Z,16.66
2018-04-08T08:15:46.769Z,16.61
2018-04-08T08:16:47.309Z,16.78
2018-04-08T08:17:47.320Z,16.76
2018-04-08T08:18:47.108Z,16.84
2018-04-08T08:19:47.376Z,16.89
2018-04-08T08:20:47.384Z,16.87
2018-04-08T08:21:47.204Z,16.99
2018-04-08T08:22:46.935Z,17.15
2018-04-08T08:23:47.311Z,16.94
2018-04-08T08:24:47.231Z,16.93
2018-04-08T08:25:47.500Z,16.99
2018-04-08T08:26:47.014Z,17.05
2018-04-08T08:27:47.298Z,17.15
2018-04-08T08:28:47.309Z,17.16
2018-04-08T08:29:47.590Z,17.24
2018-04-08T08:30:47.616Z,17.41
2018-04-08T08:31:47.387Z,17.42
2018-04-08T08:32:47.663Z,17.49
2018-04-08T08:33:47.432Z,17.51
2018-04-08T08:34:47.454Z,17.7
2018-04-08T08:35:47.728Z,17.71
2018-04-08T08:36:47.798Z,17.63
2018-04-08T08:37:47.542Z,17.67
2018-04-08T08:38:47.540Z,17.65
2018-04-08T08:39:47.567Z,17.65
2018-04-08T08:40:47.845Z,17.78
2018-04-08T08:41:47.663Z,17.68
2018-04-08T08:42:47.634Z,17.76
2018-04-08T08:43:47.975Z,17.92
2018-04-08T08:44:47.424Z,17.89
2018-04-08T08:45:47.700Z,18.01
2018-04-08T08:46:47.720Z,18.18
2018-04-08T08:47:48.007Z,18.13
2018-04-08T08:48:47.771Z,18.19
2018-04-08T08:49:47.792Z,18.25
2018-04-08T08:50:48.070Z,18.4
2018-04-08T08:51:48.138Z,18.41
2018-04-08T08:52:47.862Z,18.5
2018-04-08T08:53:47.629Z,18.53
2018-04-08T08:54:47.928Z,18.62
2018-04-08T08:55:48.181Z,18.71
2018-04-08T08:56:48.215Z,18.75
2018-04-08T08:57:48.234Z,18.8
2018-04-08T08:58:47.749Z,18.84
2018-04-08T08:59:48.280Z,18.88
2018-04-08T09:00:48.063Z,18.98
2018-04-08T09:01:48.071Z,18.9
2018-04-08T09:02:48.101Z,19.09
2018-04-08T09:03:48.370Z,19.14
2018-04-08T09:04:48.144Z,19
2018-04-08T09:05:48.420Z,19.16
2018-04-08T09:06:48.436Z,19.21
2018-04-08T09:07:48.205Z,19.16
2018-04-08T09:08:47.984Z,19.16
2018-04-08T09:09:48.008Z,19.37
2018-04-08T09:10:48.563Z,19.4
2018-04-08T09:11:48.306Z,19.55
2018-04-08T09:12:48.590Z,19.55
2018-04-08T09:13:48.361Z,19.69
2018-04-08T09:14:48.385Z,19.69
2018-04-08T09:15:48.152Z,19.74
2018-04-08T09:16:48.690Z,19.89
2018-04-08T09:17:48.457Z,19.89
2018-04-08T09:18:48.730Z,19.99
2018-04-08T09:19:48.749Z,20.16
2018-04-08T09:20:48.790Z,20.37
2018-04-08T09:21:48.701Z,20.41
2018-04-08T09:22:48.572Z,20.62
2018-04-08T09:23:48.603Z,20.82
2018-04-08T09:24:48.878Z,20.97
2018-04-08T09:25:48.653Z,21.03
2018-04-08T09:26:48.772Z,21.29
2018-04-08T09:27:48.704Z,21.32
2018-04-08T09:28:48.984Z,21.45
2018-04-08T09:29:49.008Z,21.62
2018-04-08T09:30:49.037Z,21.77
2018-04-08T09:31:49.083Z,21.85
2018-04-08T09:32:49.097Z,22.11
2018-04-08T09:33:49.126Z,22.1
2018-04-08T09:34:49.149Z,22.23
2018-04-08T09:35:48.922Z,22.38
2018-04-08T09:36:49.005Z,22.59
2018-04-08T09:37:49.236Z,22.8
2018-04-08T09:38:49.009Z,23.2
2018-04-08T09:39:49.285Z,23.32
2018-04-08T09:40:49.062Z,23.61
2018-04-08T09:41:49.343Z,23.61
2018-04-08T09:42:49.120Z,23.78
2018-04-08T09:43:49.395Z,23.95
2018-04-08T09:44:49.414Z,23.98
2018-04-08T09:45:49.192Z,24.13
2018-04-08T09:46:49.474Z,24.2
2018-04-08T09:47:49.249Z,24.43
2018-04-08T09:48:49.277Z,24.45
2018-04-08T09:49:49.304Z,24.57
2018-04-08T09:50:49.583Z,24.65
2018-04-08T09:51:49.674Z,24.86
2018-04-08T09:52:49.659Z,24.84
2018-04-08T09:53:49.676Z,24.91
2018-04-08T09:54:49.451Z,24.89
2018-04-08T09:55:49.490Z,25.25
2018-04-08T09:56:49.789Z,25.35
2018-04-08T09:57:49.817Z,25.66
2018-04-08T09:58:49.846Z,25.85
2018-04-08T09:59:49.622Z,25.9
2018-04-08T10:00:49.909Z,26
2018-04-08T10:01:49.678Z,26.15
2018-04-08T10:02:49.963Z,26.21
2018-04-08T10:03:49.996Z,26.37
2018-04-08T10:04:50.026Z,26.48
2018-04-08T10:05:49.806Z,26.56
2018-04-08T10:06:50.136Z,26.7
2018-04-08T10:07:50.118Z,26.73
2018-04-08T10:08:49.906Z,26.96
2018-04-08T10:09:49.923Z,26.81
2018-04-08T10:10:49.956Z,26.81
2018-04-08T10:11:49.989Z,26.84
2018-04-08T10:12:50.273Z,26.81
2018-04-08T10:13:50.050Z,26.77
2018-04-08T10:14:50.338Z,27.05
2018-04-08T10:15:50.367Z,27.07
2018-04-08T10:16:50.397Z,27.18
2018-04-08T10:17:50.426Z,27.39
2018-04-08T10:18:50.460Z,27.6
2018-04-08T10:19:50.493Z,27.52
2018-04-08T10:20:50.523Z,27.51
2018-04-08T10:21:50.370Z,27.68
2018-04-08T10:22:50.329Z,27.8
2018-04-08T10:23:50.359Z,28.1
2018-04-08T10:24:50.708Z,28
2018-04-08T10:25:50.191Z,27.98
2018-04-08T10:26:50.716Z,28.17
2018-04-08T10:27:50.761Z,28.33
2018-04-08T10:28:50.544Z,28.39
2018-04-08T10:29:50.563Z,28.39
2018-04-08T10:30:50.644Z,28.35
2018-04-08T10:31:50.862Z,28.44
2018-04-08T10:32:50.394Z,28.56
2018-04-08T10:33:50.933Z,28.79
2018-04-08T10:34:50.961Z,29.1
2018-04-08T10:35:50.993Z,28.74
2018-04-08T10:36:50.769Z,28.97
2018-04-08T10:37:50.806Z,29.17
2018-04-08T10:38:50.832Z,29.45
2018-04-08T10:39:51.134Z,29.31
2018-04-08T10:40:50.695Z,29.57
2018-04-08T10:41:51.203Z,29.76
2018-04-08T10:42:50.724Z,29.95
2018-04-08T10:43:51.265Z,30.09
2018-04-08T10:44:51.352Z,30.19
2018-04-08T10:45:51.075Z,30.39
2018-04-08T10:46:51.361Z,30.35
2018-04-08T10:47:51.142Z,30.3
2018-04-08T10:48:51.179Z,29.91
2018-04-08T10:49:51.209Z,30.1
2018-04-08T10:50:51.249Z,30.44
2018-04-08T10:51:51.732Z,30.9
2018-04-08T10:52:51.310Z,31.14
2018-04-08T10:53:51.091Z,31.2
2018-04-08T10:54:51.120Z,31.14
2018-04-08T10:55:51.712Z,31.06
2018-04-08T10:56:51.697Z,31.39
2018-04-08T10:57:51.209Z,31.49
2018-04-08T10:58:51.749Z,31.77
2018-04-08T10:59:51.780Z,31.84
2018-04-08T11:00:51.837Z,31.7
2018-04-08T11:01:51.868Z,32.03
2018-04-08T11:02:51.901Z,32.19
2018-04-08T11:03:51.934Z,32.4
2018-04-08T11:04:52.197Z,32.55
2018-04-08T11:05:51.753Z,32.68
2018-04-08T11:06:51.784Z,32.92
2018-04-08T11:07:52.093Z,33.09
2018-04-08T11:08:51.833Z,33.22
2018-04-08T11:09:51.869Z,33.28
2018-04-08T11:10:52.023Z,33.47
2018-04-08T11:11:52.215Z,33.5
2018-04-08T11:12:52.002Z,33.68
2018-04-08T11:13:52.022Z,33.65
2018-04-08T11:14:51.808Z,33.79
2018-04-08T11:15:52.358Z,33.94
2018-04-08T11:16:52.426Z,33.98
2018-04-08T11:17:52.420Z,34.3
2018-04-08T11:18:52.200Z,34.47
2018-04-08T11:19:52.492Z,34.52
2018-04-08T11:20:52.261Z,34.74
2018-04-08T11:21:52.547Z,34.81
2018-04-08T11:22:52.590Z,35.14
2018-04-08T11:23:52.625Z,35.07
2018-04-08T11:24:52.680Z,35.29
2018-04-08T11:25:52.485Z,35.31
2018-04-08T11:26:52.731Z,35.63
2018-04-08T11:27:52.522Z,35.48
2018-04-08T11:28:52.567Z,35.63
2018-04-08T11:29:52.833Z,35.89
2018-04-08T11:30:52.874Z,36.04
2018-04-08T11:31:52.907Z,36.37
2018-04-08T11:32:52.688Z,36.33
2018-04-08T11:33:53.002Z,36.23
2018-04-08T11:34:52.778Z,36.65
2018-04-08T11:35:52.806Z,36.64
2018-04-08T11:36:52.839Z,36.88
2018-04-08T11:37:52.880Z,36.95
2018-04-08T11:38:52.931Z,37.11
2018-04-08T11:39:53.217Z,37.37
2018-04-08T11:40:53.293Z,37.64
2018-04-08T11:41:53.036Z,37.63
2018-04-08T11:42:53.315Z,37.9
2018-04-08T11:43:53.351Z,37.92
2018-04-08T11:44:53.390Z,37.53
2018-04-08T11:45:53.431Z,37.3
2018-04-08T11:46:53.211Z,37.44
2018-04-08T11:47:53.502Z,37.68
2018-04-08T11:48:53.292Z,37.93
2018-04-08T11:49:53.323Z,37.82
2018-04-08T11:50:53.644Z,37.71
2018-04-08T11:51:53.397Z,38.11
2018-04-08T11:52:53.441Z,38.38
2018-04-08T11:53:53.733Z,38.64
2018-04-08T11:54:53.256Z,38.24
2018-04-08T11:55:53.594Z,37.89
2018-04-08T11:56:53.584Z,37.84
2018-04-08T11:57:53.868Z,38.23
2018-04-08T11:58:53.916Z,38.19
2018-04-08T11:59:53.691Z,38.14
2018-04-08T12:00:53.980Z,38.39
2018-04-08T12:01:54.026Z,38.64
2018-04-08T12:02:53.550Z,39.03
2018-04-08T12:03:53.838Z,39.11
2018-04-08T12:04:54.130Z,38.68
2018-04-08T12:05:53.913Z,38.34
2018-04-08T12:06:53.992Z,38.58
2018-04-08T12:07:53.992Z,38.58
2018-04-08T12:08:54.273Z,38.96
2018-04-08T12:09:54.059Z,39.06
2018-04-08T12:10:53.895Z,38.86
2018-04-08T12:11:54.399Z,38.87
2018-04-08T12:12:53.916Z,39.49
2018-04-08T12:13:54.216Z,39.93
2018-04-08T12:14:54.246Z,40.21
2018-04-08T12:15:54.539Z,40.08
2018-04-08T12:16:54.337Z,40.15
2018-04-08T12:17:54.363Z,39.89
2018-04-08T12:18:54.651Z,39.94
2018-04-08T12:19:54.679Z,40.05
2018-04-08T12:20:54.810Z,39.33
2018-04-08T12:21:54.244Z,39.19
2018-04-08T12:22:54.534Z,39.21
2018-04-08T12:23:54.570Z,39.3
2018-04-08T12:24:54.363Z,39.31
2018-04-08T12:25:54.699Z,39.31
2018-04-08T12:26:54.682Z,39.7
2018-04-08T12:27:54.976Z,39.85
2018-04-08T12:28:54.517Z,40.31
2018-04-08T12:29:55.068Z,40.62
2018-04-08T12:30:54.642Z,40.73
2018-04-08T12:31:54.887Z,40.72
2018-04-08T12:32:54.925Z,40.72
2018-04-08T12:33:54.962Z,40.34
2018-04-08T12:34:55.259Z,40.33
2018-04-08T12:35:55.292Z,40.85
2018-04-08T12:36:54.821Z,41.22
2018-04-08T12:37:55.114Z,41.53
2018-04-08T12:38:55.153Z,41.77
2018-04-08T12:39:55.189Z,41.75
2018-04-08T12:40:55.227Z,41.83
2018-04-08T12:41:55.265Z,42.21
2018-04-08T12:42:55.312Z,42.24
2018-04-08T12:43:55.340Z,41.78
2018-04-08T12:44:55.382Z,41.88
2018-04-08T12:45:55.471Z,42.31
2018-04-08T12:46:55.206Z,42.29
2018-04-08T12:47:55.751Z,42.53
2018-04-08T12:48:55.796Z,42.62
2018-04-08T12:49:55.839Z,42.36
2018-04-08T12:50:55.609Z,42.36
2018-04-08T12:51:56.031Z,42.35
2018-04-08T12:52:55.680Z,42.67
2018-04-08T12:53:56.061Z,42.97
2018-04-08T12:54:56.014Z,43.11
2018-04-08T12:55:55.809Z,43.45